createdAt,value
2022-09-15T00:00:31.423Z,16.72
2022-09-15T00:03:22.897Z,16.73
2022-09-15T00:05:55.208Z,16.73
2022-09-15T00:08:26.893Z,16.73
2022-09-15T00:11:03.812Z,16.73
2022-09-15T00:13:35.219Z,16.73
2022-09-15T00:16:07.418Z,16.74
2022-09-15T00:18:39.662Z,16.72
2022-09-15T00:21:12.584Z,16.73
2022-09-15T00:23:43.458Z,16.73
2022-09-15T00:26:21.370Z,16.73
2022-09-15T00:28:52.520Z,16.73
2022-09-15T00:31:26.638Z,16.73
2022-09-15T00:33:59.877Z,16.71
2022-09-15T00:36:31.042Z,16.70
2022-09-15T00:39:02.156Z,16.68
2022-09-15T00:41:33.031Z,16.66
2022-09-15T00:44:06.785Z,16.65
2022-09-15T00:46:40.628Z,16.65
2022-09-15T00:49:17.129Z,16.64
2022-09-15T00:51:53.957Z,16.61
2022-09-15T00:54:30.315Z,16.60
2022-09-15T00:57:05.795Z,16.57
2022-09-15T00:59:40.679Z,16.55
2022-09-15T01:02:17.012Z,16.53
2022-09-15T01:04:48.429Z,16.52
2022-09-15T01:07:26.555Z,16.50
2022-09-15T01:10:01.094Z,16.48
2022-09-15T01:12:32.444Z,16.45
2022-09-15T01:15:04.305Z,16.44
2022-09-15T01:17:54.431Z,16.43
2022-09-15T01:20:48.962Z,16.42
2022-09-15T01:23:39.341Z,16.40
2022-09-15T01:26:42.554Z,16.38
2022-09-15T01:29:39.185Z,16.37
2022-09-15T01:32:34.321Z,16.35
2022-09-15T01:35:10.573Z,16.33
2022-09-15T01:37:45.891Z,16.32
2022-09-15T01:40:19.638Z,16.31
2022-09-15T01:42:52.334Z,16.30
2022-09-15T01:45:29.462Z,16.30
2022-09-15T01:48:03.117Z,16.30
2022-09-15T01:50:38.416Z,16.29
2022-09-15T01:53:15.218Z,16.30
2022-09-15T01:55:51.614Z,16.30
2022-09-15T01:58:22.825Z,16.27
2022-09-15T02:00:58.364Z,16.24
2022-09-15T02:03:35.203Z,16.21
2022-09-15T02:06:14.715Z,16.16
2022-09-15T02:08:49.909Z,16.14
2022-09-15T02:11:28.138Z,16.11
2022-09-15T02:14:11.398Z,16.08
2022-09-15T02:16:47.181Z,16.04
2022-09-15T02:19:31.312Z,16.02
2022-09-15T02:22:10.705Z,15.98
2022-09-15T02:24:45.533Z,15.95
2022-09-15T02:27:21.951Z,15.94
2022-09-15T02:29:55.487Z,15.96
2022-09-15T02:32:29.804Z,15.97
2022-09-15T02:35:06.731Z,15.94
2022-09-15T02:37:39.008Z,15.86
2022-09-15T02:40:11.458Z,15.75
2022-09-15T02:42:42.701Z,15.65
2022-09-15T02:45:14.546Z,15.60
2022-09-15T02:47:45.613Z,15.57
2022-09-15T02:50:17.273Z,15.53
2022-09-15T02:52:48.166Z,15.49
2022-09-15T02:55:19.306Z,15.49
2022-09-15T02:57:50.586Z,15.51
2022-09-15T03:00:21.790Z,15.50
2022-09-15T03:02:54.567Z,15.53
2022-09-15T03:05:27.518Z,15.56
2022-09-15T03:07:59.052Z,15.55
2022-09-15T03:10:29.855Z,15.53
2022-09-15T03:13:00.790Z,15.49
2022-09-15T03:15:31.699Z,15.46
2022-09-15T03:18:04.277Z,15.42
2022-09-15T03:20:34.997Z,15.38
2022-09-15T03:23:05.892Z,15.37
2022-09-15T03:25:36.957Z,15.37
2022-09-15T03:28:08.735Z,15.36
2022-09-15T03:30:39.719Z,15.36
2022-09-15T03:33:10.885Z,15.37
2022-09-15T03:35:41.754Z,15.37
2022-09-15T03:38:12.764Z,15.38
2022-09-15T03:40:44.094Z,15.38
2022-09-15T03:43:18.603Z,15.40
2022-09-15T03:45:49.534Z,15.40
2022-09-15T03:48:20.474Z,15.40
2022-09-15T03:50:51.584Z,15.39
2022-09-15T03:53:22.955Z,15.37
2022-09-15T03:55:54.596Z,15.37
2022-09-15T03:58:30.080Z,15.36
2022-09-15T04:01:01.682Z,15.32
2022-09-15T04:03:32.873Z,15.32
2022-09-15T04:06:04.051Z,15.30
2022-09-15T04:08:35.125Z,15.30
2022-09-15T04:11:08.650Z,15.28
2022-09-15T04:13:42.053Z,15.24
2022-09-15T04:16:15.522Z,15.21
2022-09-15T04:18:46.675Z,15.18
2022-09-15T04:21:19.761Z,15.19
2022-09-15T04:23:51.548Z,15.21
2022-09-15T04:26:27.229Z,15.21
2022-09-15T04:29:01.696Z,15.19
2022-09-15T04:31:36.148Z,15.14
2022-09-15T04:34:06.952Z,15.12
2022-09-15T04:36:38.154Z,15.13
2022-09-15T04:39:09.187Z,15.11
2022-09-15T04:41:40.936Z,15.12
2022-09-15T04:44:11.766Z,15.13
2022-09-15T04:46:42.638Z,15.11
2022-09-15T04:49:14.561Z,15.08
2022-09-15T04:51:45.290Z,15.07
2022-09-15T04:54:16.386Z,15.05
2022-09-15T04:56:47.533Z,15.06
2022-09-15T04:59:20.235Z,15.07
2022-09-15T05:01:54.672Z,15.08
2022-09-15T05:04:25.791Z,15.08
2022-09-15T05:06:56.613Z,15.06
2022-09-15T05:09:29.676Z,15.03
2022-09-15T05:12:00.559Z,15.00
2022-09-15T05:14:31.851Z,14.99
2022-09-15T05:17:02.769Z,14.98
2022-09-15T05:19:34.170Z,14.94
2022-09-15T05:22:05.095Z,14.94
2022-09-15T05:24:35.870Z,14.94
2022-09-15T05:27:07.683Z,14.93
2022-09-15T05:29:38.627Z,14.90
2022-09-15T05:32:09.627Z,14.90
2022-09-15T05:34:40.367Z,14.88
2022-09-15T05:37:11.452Z,14.87
2022-09-15T05:39:42.185Z,14.84
2022-09-15T05:42:13.020Z,14.82
2022-09-15T05:44:44.112Z,14.83
2022-09-15T05:47:16.486Z,14.81
2022-09-15T05:49:47.523Z,14.81
2022-09-15T05:52:18.213Z,14.80
2022-09-15T05:54:48.901Z,14.77
2022-09-15T05:57:18.217Z,14.77
2022-09-15T05:59:49.132Z,14.79
2022-09-15T06:02:20.115Z,14.79
2022-09-15T06:05:26.374Z,14.82
2022-09-15T06:07:59.019Z,14.89
2022-09-15T06:10:29.681Z,14.92
2022-09-15T06:13:00.694Z,14.94
2022-09-15T06:15:32.245Z,14.97
2022-09-15T06:18:08.181Z,14.99
2022-09-15T06:20:41.112Z,15.05
2022-09-15T06:23:20.264Z,15.09
2022-09-15T06:25:51.407Z,15.15
2022-09-15T06:28:22.409Z,15.21
2022-09-15T06:30:53.342Z,15.28
2022-09-15T06:33:24.453Z,15.35
2022-09-15T06:35:55.531Z,15.41
2022-09-15T06:38:26.755Z,15.46
2022-09-15T06:41:01.409Z,15.49
2022-09-15T06:43:33.874Z,15.53
2022-09-15T06:46:10.196Z,15.51
2022-09-15T06:48:46.255Z,15.49
2022-09-15T06:51:22.457Z,15.45
2022-09-15T06:53:54.674Z,15.39
2022-09-15T06:56:34.570Z,15.38
2022-09-15T06:59:12.190Z,15.37
2022-09-15T07:01:46.072Z,15.37
2022-09-15T07:04:17.201Z,15.39
2022-09-15T07:06:50.443Z,15.45
2022-09-15T07:09:21.353Z,15.54
2022-09-15T07:11:52.283Z,15.66
2022-09-15T07:14:23.372Z,15.72
2022-09-15T07:16:54.315Z,15.81
2022-09-15T07:19:25.430Z,15.90
2022-09-15T07:21:56.207Z,16.01
2022-09-15T07:24:27.136Z,16.11
2022-09-15T07:26:58.213Z,16.18
2022-09-15T07:29:29.315Z,16.23
2022-09-15T07:32:00.358Z,16.25
2022-09-15T07:34:31.358Z,16.17
2022-09-15T07:37:02.661Z,16.11
2022-09-15T07:39:33.897Z,16.08
2022-09-15T07:42:05.037Z,16.06
2022-09-15T07:44:36.123Z,16.03
2022-09-15T07:47:07.303Z,16.03
2022-09-15T07:49:38.216Z,16.03
2022-09-15T07:52:10.204Z,16.06
2022-09-15T07:54:41.143Z,16.02
2022-09-15T07:57:12.187Z,15.98
2022-09-15T07:59:43.167Z,15.95
2022-09-15T08:02:19.079Z,15.88
2022-09-15T08:04:50.325Z,15.75
2022-09-15T08:07:21.638Z,15.63
2022-09-15T08:09:52.680Z,15.54
2022-09-15T08:12:23.399Z,15.48
2022-09-15T08:14:54.420Z,15.45
2022-09-15T08:17:25.356Z,15.42
2022-09-15T08:19:56.334Z,15.40
2022-09-15T08:22:27.416Z,15.38
2022-09-15T08:24:58.352Z,15.42
2022-09-15T08:27:29.496Z,15.45
2022-09-15T08:30:00.753Z,15.49
2022-09-15T08:32:32.194Z,15.55
2022-09-15T08:35:03.133Z,15.59
2022-09-15T08:37:34.507Z,15.63
2022-09-15T08:40:07.234Z,15.73
2022-09-15T08:42:44.840Z,15.79
2022-09-15T08:45:23.057Z,15.84
2022-09-15T08:47:58.744Z,15.83
2022-09-15T08:50:31.939Z,15.80
2022-09-15T08:53:09.739Z,15.71
2022-09-15T08:55:48.925Z,15.68
2022-09-15T08:58:22.243Z,15.71
2022-09-15T09:01:01.432Z,15.72
2022-09-15T09:03:49.365Z,15.74
2022-09-15T09:06:30.582Z,15.77
2022-09-15T09:09:20.995Z,15.81
2022-09-15T09:12:07.479Z,15.83
2022-09-15T09:14:51.845Z,15.86
2022-09-15T09:17:37.531Z,15.94
2022-09-15T09:20:27.632Z,16.04
2022-09-15T09:23:01.584Z,16.19
2022-09-15T09:25:32.481Z,16.33
2022-09-15T09:28:24.286Z,16.44
2022-09-15T09:30:56.164Z,16.52
2022-09-15T09:33:34.391Z,16.58
2022-09-15T09:36:06.672Z,16.63
2022-09-15T09:38:41.353Z,16.62
2022-09-15T09:41:17.933Z,16.60
2022-09-15T09:43:48.974Z,16.57
2022-09-15T09:46:22.250Z,16.52
2022-09-15T09:48:57.464Z,16.57
2022-09-15T09:51:38.000Z,16.60
2022-09-15T09:54:20.603Z,16.61
2022-09-15T09:56:53.483Z,16.63
2022-09-15T09:59:39.783Z,16.60
2022-09-15T10:02:25.037Z,16.48
2022-09-15T10:05:14.486Z,16.35
2022-09-15T10:07:44.872Z,16.24
2022-09-15T10:10:24.395Z,16.13
2022-09-15T10:12:58.202Z,16.05
2022-09-15T10:15:32.522Z,15.98
2022-09-15T10:18:04.069Z,15.91
2022-09-15T10:20:41.272Z,15.85
2022-09-15T10:23:28.273Z,15.88
2022-09-15T10:26:19.294Z,15.88
2022-09-15T10:29:14.902Z,15.91
2022-09-15T10:31:47.147Z,15.96
2022-09-15T10:34:31.429Z,16.08
2022-09-15T10:37:13.536Z,16.18
2022-09-15T10:39:53.078Z,16.25
2022-09-15T10:42:37.740Z,16.25
2022-09-15T10:45:23.855Z,16.28
2022-09-15T10:48:14.160Z,16.34
2022-09-15T10:50:55.706Z,16.44
2022-09-15T10:54:00.796Z,16.53
2022-09-15T10:56:35.359Z,16.62
2022-09-15T10:59:32.399Z,16.66
2022-09-15T11:02:35.282Z,16.75
2022-09-15T11:05:22.613Z,16.89
2022-09-15T11:08:06.360Z,17.01
2022-09-15T11:10:45.499Z,17.09
2022-09-15T11:13:25.894Z,17.20
2022-09-15T11:16:04.680Z,17.23
2022-09-15T11:18:51.296Z,17.21
2022-09-15T11:21:30.483Z,17.20
2022-09-15T11:24:27.386Z,17.20
2022-09-15T11:27:03.233Z,17.24
2022-09-15T11:29:52.743Z,17.25
2022-09-15T11:32:29.151Z,17.19
2022-09-15T11:35:07.691Z,17.12
2022-09-15T11:37:43.486Z,17.08
2022-09-15T11:40:22.219Z,17.00
2022-09-15T11:43:01.356Z,16.93
2022-09-15T11:45:38.195Z,16.87
2022-09-15T11:48:16.679Z,16.81
2022-09-15T11:50:50.783Z,16.75
2022-09-15T11:53:32.713Z,16.69
2022-09-15T11:56:14.472Z,16.69
2022-09-15T11:59:03.792Z,16.71
2022-09-15T12:01:42.107Z,16.75
2022-09-15T12:04:18.153Z,16.85
2022-09-15T12:06:54.939Z,16.91
2022-09-15T12:09:25.401Z,16.94
2022-09-15T12:12:01.922Z,16.96
2022-09-15T12:14:36.435Z,17.05
2022-09-15T12:17:11.383Z,17.13
2022-09-15T12:19:53.650Z,17.21
2022-09-15T12:22:30.085Z,17.26
2022-09-15T12:25:06.720Z,17.30
2022-09-15T12:27:37.749Z,17.33
2022-09-15T12:30:31.597Z,17.44
2022-09-15T12:33:22.338Z,17.52
2022-09-15T12:35:55.235Z,17.54
2022-09-15T12:38:31.719Z,17.57
2022-09-15T12:41:02.528Z,17.63
2022-09-15T12:43:33.365Z,17.63
2022-09-15T12:46:04.759Z,17.61
2022-09-15T12:48:37.600Z,17.65
2022-09-15T12:51:11.625Z,17.69
2022-09-15T12:53:54.763Z,17.72
2022-09-15T12:56:28.443Z,17.72
2022-09-15T12:59:06.590Z,17.72
2022-09-15T13:01:51.620Z,17.74
2022-09-15T13:04:45.205Z,17.74
2022-09-15T13:07:54.015Z,17.70
2022-09-15T13:10:42.539Z,17.61
2022-09-15T13:13:28.726Z,17.45
2022-09-15T13:16:07.569Z,17.27
2022-09-15T13:18:39.541Z,17.14
2022-09-15T13:21:17.088Z,17.09
2022-09-15T13:23:52.974Z,17.09
2022-09-15T13:26:28.348Z,17.02
2022-09-15T13:29:00.313Z,16.94
2022-09-15T13:31:40.138Z,16.90
2022-09-15T13:38:15.072Z,16.81
2022-09-15T13:41:07.115Z,16.73
2022-09-15T13:44:00.141Z,16.59
2022-09-15T13:46:42.827Z,16.47
2022-09-15T13:49:38.051Z,16.42
2022-09-15T13:52:22.781Z,16.46
2022-09-15T13:55:17.385Z,16.51
2022-09-15T14:00:55.461Z,16.59
2022-09-15T14:03:36.899Z,16.63
2022-09-15T14:06:14.816Z,16.66
2022-09-15T14:08:49.855Z,16.64
2022-09-15T14:11:26.617Z,16.58
2022-09-15T14:13:59.400Z,16.53
2022-09-15T14:16:36.649Z,16.46
2022-09-15T14:19:33.365Z,16.35
2022-09-15T14:22:19.670Z,16.24
2022-09-15T14:24:54.135Z,16.10
2022-09-15T14:27:27.453Z,16.01
2022-09-15T14:30:02.621Z,15.97
2022-09-15T14:32:39.067Z,16.00
2022-09-15T14:35:18.955Z,16.04
2022-09-15T14:37:55.213Z,16.11
2022-09-15T14:40:31.174Z,16.17
2022-09-15T14:43:03.137Z,16.22
2022-09-15T14:48:34.346Z,16.16
2022-09-15T14:51:10.004Z,16.12
2022-09-15T14:53:44.426Z,16.09
2022-09-15T14:56:20.460Z,16.10
2022-09-15T14:58:55.265Z,16.14
2022-09-15T15:01:33.688Z,16.18
2022-09-15T15:04:11.971Z,16.26
2022-09-15T15:06:52.804Z,16.39
2022-09-15T15:09:30.042Z,16.68
2022-09-15T15:12:05.817Z,16.93
2022-09-15T15:14:37.723Z,17.15
2022-09-15T15:17:25.268Z,17.26
2022-09-15T15:20:02.830Z,17.43
2022-09-15T15:22:33.702Z,17.56
2022-09-15T15:25:21.850Z,17.53
2022-09-15T15:27:55.443Z,17.56
2022-09-15T15:30:46.746Z,17.46
2022-09-15T15:33:27.713Z,17.22
2022-09-15T15:36:11.812Z,16.96
2022-09-15T15:38:50.678Z,16.78
2022-09-15T15:41:25.010Z,16.68
2022-09-15T15:44:03.384Z,16.66
2022-09-15T15:46:57.455Z,16.56
2022-09-15T15:49:30.435Z,16.47
2022-09-15T15:52:02.810Z,16.42
2022-09-15T15:54:36.447Z,16.34
2022-09-15T15:57:24.241Z,16.24
2022-09-15T15:59:58.769Z,16.14
2022-09-15T16:02:30.179Z,16.06
2022-09-15T16:05:01.500Z,16.03
2022-09-15T16:07:33.871Z,15.99
2022-09-15T16:10:05.722Z,15.93
2022-09-15T16:12:36.437Z,15.86
2022-09-15T16:15:15.105Z,15.81
2022-09-15T16:17:46.955Z,15.78
2022-09-15T16:20:20.300Z,15.76
2022-09-15T16:22:51.096Z,15.71
2022-09-15T16:25:29.711Z,15.67
2022-09-15T16:28:01.056Z,15.63
2022-09-15T16:30:32.919Z,15.54
2022-09-15T16:33:03.930Z,15.46
2022-09-15T16:35:40.359Z,15.39
2022-09-15T16:38:11.545Z,15.33
2022-09-15T16:40:42.603Z,15.31
2022-09-15T16:43:16.948Z,15.27
2022-09-15T16:45:48.921Z,15.23
2022-09-15T16:48:21.693Z,15.17
2022-09-15T16:53:44.055Z,15.00
2022-09-15T16:56:16.010Z,14.91
2022-09-15T16:58:47.468Z,14.84
2022-09-15T17:01:21.487Z,14.77
2022-09-15T17:03:52.552Z,14.74
2022-09-15T17:06:23.871Z,14.68
2022-09-15T17:08:55.717Z,14.62
2022-09-15T17:11:27.797Z,14.57
2022-09-15T17:13:58.739Z,14.53
2022-09-15T17:16:29.791Z,14.51
2022-09-15T17:19:00.715Z,14.49
2022-09-15T17:21:31.651Z,14.50
2022-09-15T17:24:03.047Z,14.49
2022-09-15T17:26:34.378Z,14.47
2022-09-15T17:29:05.427Z,14.46
2022-09-15T17:31:36.627Z,14.43
2022-09-15T17:34:11.657Z,14.39
2022-09-15T17:36:42.435Z,14.37
2022-09-15T17:39:13.680Z,14.37
2022-09-15T17:41:44.931Z,14.36
2022-09-15T17:44:15.952Z,14.33
2022-09-15T17:46:46.989Z,14.32
2022-09-15T17:49:18.198Z,14.32
2022-09-15T17:51:49.237Z,14.32
2022-09-15T17:54:20.371Z,14.33
2022-09-15T17:56:51.178Z,14.33
2022-09-15T17:59:21.979Z,14.34
2022-09-15T18:01:53.438Z,14.35
2022-09-15T18:04:24.414Z,14.38
2022-09-15T18:06:55.567Z,14.39
2022-09-15T18:09:26.488Z,14.39
2022-09-15T18:11:57.618Z,14.38
2022-09-15T18:14:28.512Z,14.37
2022-09-15T18:17:08.516Z,14.35
2022-09-15T18:19:40.514Z,14.31
2022-09-15T18:22:15.063Z,14.26
2022-09-15T18:24:46.251Z,14.20
2022-09-15T18:27:17.334Z,14.12
2022-09-15T18:29:48.302Z,14.09
2022-09-15T18:32:19.264Z,14.06
2022-09-15T18:34:50.326Z,14.03
2022-09-15T18:37:21.355Z,13.98
2022-09-15T18:39:52.517Z,13.94
2022-09-15T18:42:27.201Z,13.89
2022-09-15T18:45:01.119Z,13.83
2022-09-15T18:47:32.250Z,13.79
2022-09-15T18:50:05.190Z,13.74
2022-09-15T18:52:40.192Z,13.69
2022-09-15T18:55:15.169Z,13.65
2022-09-15T18:57:47.394Z,13.61
2022-09-15T19:00:21.199Z,13.57
2022-09-15T19:02:56.961Z,13.53
2022-09-15T19:05:29.247Z,13.48
2022-09-15T19:08:00.450Z,13.46
2022-09-15T19:10:32.526Z,13.42
2022-09-15T19:13:03.771Z,13.39
2022-09-15T19:15:35.346Z,13.34
2022-09-15T19:18:09.140Z,13.29
2022-09-15T19:20:40.397Z,13.23
2022-09-15T19:23:12.331Z,13.15
2022-09-15T19:25:45.337Z,13.08
2022-09-15T19:28:16.891Z,13.00
2022-09-15T19:30:47.860Z,12.95
2022-09-15T19:33:18.850Z,12.93
2022-09-15T19:35:59.970Z,12.93
2022-09-15T19:38:37.097Z,12.91
2022-09-15T19:41:11.308Z,12.91
2022-09-15T19:43:43.109Z,12.88
2022-09-15T19:46:19.131Z,12.85
2022-09-15T19:48:50.392Z,12.81
2022-09-15T19:51:21.900Z,12.76
2022-09-15T19:53:56.543Z,12.73
2022-09-15T19:56:29.072Z,12.71
2022-09-15T19:59:00.929Z,12.71
2022-09-15T20:01:33.383Z,12.72
2022-09-15T20:06:53.315Z,12.73
2022-09-15T20:09:24.279Z,12.73
2022-09-15T20:11:54.958Z,12.74
2022-09-15T20:14:25.741Z,12.73
2022-09-15T20:17:00.330Z,12.73
2022-09-15T20:19:33.648Z,12.71
2022-09-15T20:22:05.049Z,12.69
2022-09-15T20:24:36.092Z,12.65
2022-09-15T20:27:09.184Z,12.64
2022-09-15T20:29:40.576Z,12.60
2022-09-15T20:32:11.646Z,12.57
2022-09-15T20:34:42.855Z,12.54
2022-09-15T20:37:14.005Z,12.51
2022-09-15T20:39:49.216Z,12.46
2022-09-15T20:42:20.443Z,12.43
2022-09-15T20:44:51.330Z,12.42
2022-09-15T20:47:22.330Z,12.43
2022-09-15T20:49:53.308Z,12.42
2022-09-15T20:52:27.944Z,12.41
2022-09-15T20:55:00.306Z,12.36
2022-09-15T20:57:31.334Z,12.34
2022-09-15T21:00:02.759Z,12.31
2022-09-15T21:02:33.688Z,12.27
2022-09-15T21:05:02.849Z,12.23
2022-09-15T21:07:34.207Z,12.17
2022-09-15T21:10:05.194Z,12.14
2022-09-15T21:12:36.088Z,12.13
2022-09-15T21:15:08.784Z,12.15
2022-09-15T21:17:39.666Z,12.18
2022-09-15T21:20:11.711Z,12.20
2022-09-15T21:22:42.847Z,12.21
2022-09-15T21:25:13.715Z,12.22
2022-09-15T21:27:46.272Z,12.22
2022-09-15T21:30:17.906Z,12.24
2022-09-15T21:32:49.284Z,12.24
2022-09-15T21:35:20.123Z,12.27
2022-09-15T21:37:51.283Z,12.31
2022-09-15T21:40:20.489Z,12.34
2022-09-15T21:42:51.468Z,12.33
2022-09-15T21:45:22.534Z,12.35
2022-09-15T21:47:53.582Z,12.36
2022-09-15T21:50:24.428Z,12.36
2022-09-15T21:52:53.755Z,12.34
2022-09-15T21:55:23.152Z,12.31
2022-09-15T21:57:54.070Z,12.28
2022-09-15T22:00:25.043Z,12.29
2022-09-15T22:02:56.314Z,12.29
2022-09-15T22:05:27.027Z,12.29
2022-09-15T22:08:02.762Z,12.28
2022-09-15T22:10:35.775Z,12.22
2022-09-15T22:13:08.000Z,12.19
2022-09-15T22:15:39.540Z,12.14
2022-09-15T22:18:11.534Z,12.09
2022-09-15T22:20:42.587Z,12.03
2022-09-15T22:23:13.574Z,11.98
2022-09-15T22:25:45.390Z,11.92
2022-09-15T22:28:16.230Z,11.87
2022-09-15T22:30:47.270Z,11.83
2022-09-15T22:33:18.722Z,11.79
2022-09-15T22:35:50.893Z,11.73
2022-09-15T22:38:22.646Z,11.66
2022-09-15T22:40:53.986Z,11.61
2022-09-15T22:43:25.139Z,11.56
2022-09-15T22:45:56.437Z,11.51
2022-09-15T22:48:27.529Z,11.49
2022-09-15T22:50:58.571Z,11.48
2022-09-15T23:01:10.120Z,11.37
2022-09-15T23:03:41.994Z,11.32
2022-09-15T23:10:37.464Z,11.24
2022-09-15T23:13:06.735Z,11.23
2022-09-15T23:15:38.153Z,11.19
2022-09-15T23:18:09.140Z,11.18
2022-09-15T23:20:40.474Z,11.16
2022-09-15T23:23:11.831Z,11.14
2022-09-15T23:25:42.949Z,11.10
2022-09-15T23:28:13.990Z,11.08
2022-09-15T23:30:44.872Z,11.03
2022-09-15T23:33:16.120Z,11.02
2022-09-15T23:35:47.425Z,11.02
2022-09-15T23:38:18.977Z,11.01
2022-09-15T23:40:50.751Z,11.01
2022-09-15T23:43:21.763Z,11.01
2022-09-15T23:45:51.693Z,11.02
2022-09-15T23:48:23.486Z,11.02
2022-09-15T23:50:54.791Z,11.02
2022-09-15T23:53:25.871Z,11.04
2022-09-15T23:55:57.152Z,11.06
2022-09-15T23:58:28.294Z,11.08
